Time;durP1;ratioP1;P1;durP2;ratioP2;P2;SDS_P1;SDS_P2;PMS_P1;PMS_P2;Temp;Humidity;BMP_temperature;BMP_pressure;BME280_temperature;BME280_humidity;BME280_pressure;Samples;Min_cycle;Max_cycle;Signal;HPM_P1;HPM_P2
2022/11/14 00:00:26;;;;;;;42.75;31.77;;;6.90;99.90;;;;;;5052759;28;20040;-62
2022/11/14 00:02:52;;;;;;;41.20;29.00;;;6.70;99.90;;;;;;5051637;28;20042;-61
2022/11/14 00:05:18;;;;;;;42.50;31.48;;;6.70;99.90;;;;;;5052840;28;20502;-61
2022/11/14 00:07:44;;;;;;;39.90;27.40;;;6.50;99.90;;;;;;5052463;28;20124;-61
2022/11/14 00:10:10;;;;;;;30.73;22.08;;;7.30;99.90;;;;;;5051747;28;20028;-61
2022/11/14 00:12:35;;;;;;;31.75;20.35;;;7.30;99.90;;;;;;5051504;28;20063;-61
2022/11/14 00:15:01;;;;;;;32.28;20.73;;;7.30;99.90;;;;;;5051442;28;20051;-61
2022/11/14 00:17:27;;;;;;;31.55;19.75;;;6.70;99.90;;;;;;5052209;28;20539;-61
2022/11/14 00:19:52;;;;;;;40.53;24.85;;;7.30;99.90;;;;;;5051424;28;20048;-61
2022/11/14 00:22:18;;;;;;;37.05;25.08;;;7.30;99.90;;;;;;5048046;28;20038;-60
2022/11/14 00:24:43;;;;;;;33.17;19.92;;;6.40;99.90;;;;;;5049340;28;20376;-61
2022/11/14 00:27:09;;;;;;;40.63;26.55;;;7.00;99.90;;;;;;5042203;28;20510;-60
2022/11/14 00:29:34;;;;;;;42.10;28.30;;;6.40;99.90;;;;;;5036126;28;20507;-61
2022/11/14 00:32:00;;;;;;;38.58;24.67;;;7.20;99.90;;;;;;5050824;28;20041;-61
2022/11/14 00:34:25;;;;;;;38.15;24.30;;;6.50;99.90;;;;;;5051281;28;20044;-61
2022/11/14 00:36:51;;;;;;;37.67;23.45;;;7.20;99.90;;;;;;5050895;28;20033;-61
2022/11/14 00:39:16;;;;;;;38.60;23.27;;;7.40;99.90;;;;;;5051385;28;20106;-61
2022/11/14 00:41:42;;;;;;;42.15;25.98;;;7.30;99.90;;;;;;5052014;28;20041;-61
2022/11/14 00:44:07;;;;;;;40.67;22.40;;;7.00;99.90;;;;;;5051218;28;20044;-60
2022/11/14 00:46:34;;;;;;;41.85;24.08;;;7.50;99.90;;;;;;5051630;28;20047;-61
2022/11/14 00:48:59;;;;;;;36.80;18.85;;;6.90;99.90;;;;;;5052154;28;20362;-60
2022/11/14 00:51:25;;;;;;;39.53;22.73;;;7.20;99.90;;;;;;5051712;28;20665;-60
2022/11/14 00:53:51;;;;;;;47.53;29.05;;;7.60;99.90;;;;;;5049711;28;20041;-61
2022/11/14 00:56:16;;;;;;;49.55;27.90;;;7.70;99.90;;;;;;5051542;28;20090;-60
2022/11/14 00:58:42;;;;;;;39.95;22.75;;;6.90;99.90;;;;;;5040447;28;20042;-61
2022/11/14 01:01:07;;;;;;;44.53;24.55;;;6.90;99.90;;;;;;5041013;28;20033;-61
2022/11/14 01:03:33;;;;;;;49.72;28.33;;;7.60;99.90;;;;;;5050647;28;21154;-61
2022/11/14 01:06:06;;;;;;;45.05;27.27;;;6.90;99.90;;;;;;5050809;28;20486;-61
2022/11/14 01:08:31;;;;;;;42.70;25.15;;;6.90;99.90;;;;;;5051489;28;20081;-61
2022/11/14 01:10:57;;;;;;;47.63;27.65;;;7.00;99.90;;;;;;5051425;28;20076;-61
2022/11/14 01:13:23;;;;;;;48.35;25.95;;;7.80;99.90;;;;;;5049837;28;20040;-61
2022/11/14 01:15:49;;;;;;;44.40;26.88;;;7.40;99.90;;;;;;5050724;28;20502;-61
2022/11/14 01:18:18;;;;;;;48.90;28.58;;;7.90;99.90;;;;;;5033842;28;20049;-61
2022/11/14 01:20:46;;;;;;;49.28;27.90;;;7.20;99.90;;;;;;5051873;28;20596;-61
2022/11/14 01:23:14;;;;;;;49.42;29.05;;;8.00;99.90;;;;;;5050766;28;20039;-60
2022/11/14 01:25:41;;;;;;;55.20;26.13;;;7.10;99.90;;;;;;5050292;28;20368;-61
2022/11/14 01:28:10;;;;;;;43.88;25.08;;;7.10;99.90;;;;;;5051346;28;20029;-61
2022/11/14 01:30:36;;;;;;;43.30;24.65;;;7.20;99.90;;;;;;5049873;28;20060;-61
2022/11/14 01:33:03;;;;;;;40.92;23.42;;;7.00;99.90;;;;;;5049822;28;20041;-61
2022/11/14 01:35:29;;;;;;;38.92;21.95;;;7.60;99.90;;;;;;5051402;28;20064;-61
2022/11/14 01:37:55;;;;;;;35.58;19.95;;;7.90;99.90;;;;;;5050004;28;20043;-61
2022/11/14 01:40:20;;;;;;;41.85;24.30;;;8.00;99.90;;;;;;5038347;28;20491;-61
2022/11/14 01:43:15;;;;;;;42.45;25.23;;;8.10;99.90;;;;;;5050533;28;20072;-61
2022/11/14 01:45:51;;;;;;;40.55;23.42;;;8.20;99.90;;;;;;5035817;28;20190;-61
2022/11/14 01:48:23;;;;;;;46.05;25.13;;;7.60;99.90;;;;;;5049759;28;20033;-61
2022/11/14 01:50:59;;;;;;;39.28;21.70;;;7.80;99.90;;;;;;5051204;28;20108;-61
2022/11/14 01:53:25;;;;;;;36.63;20.75;;;8.30;99.90;;;;;;5050068;28;20037;-61
2022/11/14 01:55:52;;;;;;;46.30;26.45;;;8.20;99.90;;;;;;5049374;28;20494;-61
2022/11/14 01:58:19;;;;;;;43.75;25.95;;;7.60;99.90;;;;;;5053402;28;20486;-61
2022/11/14 02:00:45;;;;;;;41.38;22.02;;;7.60;99.90;;;;;;5053568;28;20502;-61
2022/11/14 02:03:13;;;;;;;41.65;25.25;;;7.20;99.90;;;;;;5054872;28;20123;-61
2022/11/14 02:05:40;;;;;;;39.88;24.05;;;7.50;99.90;;;;;;5054955;28;20037;-61
2022/11/14 02:08:09;;;;;;;43.55;26.45;;;8.30;99.90;;;;;;5053495;28;20041;-61
2022/11/14 02:10:34;;;;;;;37.13;20.55;;;8.40;99.90;;;;;;5054724;28;20053;-61
2022/11/14 02:13:00;;;;;;;43.13;27.35;;;8.20;99.90;;;;;;5054938;28;20469;-61
2022/11/14 02:15:26;;;;;;;37.97;23.10;;;7.70;99.90;;;;;;5054115;28;20056;-61
2022/11/14 02:17:52;;;;;;;49.97;28.67;;;7.60;99.90;;;;;;5052491;28;20037;-61
2022/11/14 02:20:27;;;;;;;44.42;25.67;;;8.10;99.90;;;;;;5053254;28;20041;-61
2022/11/14 02:22:52;;;;;;;41.67;25.17;;;7.70;99.90;;;;;;5053414;28;20484;-61
2022/11/14 02:25:18;;;;;;;39.88;22.30;;;7.50;99.90;;;;;;5054320;28;20048;-61
2022/11/14 02:27:44;;;;;;;39.42;23.90;;;8.40;99.90;;;;;;5052199;28;20390;-61
2022/11/14 02:30:13;;;;;;;48.17;28.77;;;8.40;99.90;;;;;;5054708;28;20032;-61
2022/11/14 02:32:39;;;;;;;45.80;28.85;;;8.20;99.90;;;;;;5054342;28;20345;-61
2022/11/14 02:35:04;;;;;;;51.10;31.42;;;8.20;99.90;;;;;;5053416;28;20041;-61
2022/11/14 02:37:30;;;;;;;46.90;29.75;;;8.50;99.90;;;;;;5053299;28;20477;-61
2022/11/14 02:39:56;;;;;;;40.83;25.65;;;7.70;99.90;;;;;;5054469;28;20136;-61
2022/11/14 02:42:21;;;;;;;43.85;28.00;;;7.50;99.90;;;;;;5052346;28;20448;-61
2022/11/14 02:44:47;;;;;;;42.58;26.73;;;8.20;99.90;;;;;;5054050;28;20591;-61
2022/11/14 02:47:12;;;;;;;42.40;24.88;;;8.50;99.90;;;;;;5052716;28;20501;-61
2022/11/14 02:49:38;;;;;;;44.22;26.38;;;7.70;99.90;;;;;;5054478;28;20056;-61
2022/11/14 02:52:03;;;;;;;41.70;25.60;;;8.10;99.90;;;;;;5054354;28;20402;-61
2022/11/14 02:54:29;;;;;;;39.60;24.83;;;8.60;99.90;;;;;;5054223;28;20466;-61
2022/11/14 02:56:54;;;;;;;43.15;27.55;;;8.40;99.90;;;;;;5053440;28;20379;-61
2022/11/14 02:59:20;;;;;;;38.50;26.13;;;7.70;99.90;;;;;;5054030;28;20398;-61
2022/11/14 03:01:45;;;;;;;40.90;25.02;;;7.80;99.90;;;;;;5053175;28;20480;-61
2022/11/14 03:04:11;;;;;;;40.65;26.08;;;8.60;99.90;;;;;;5053742;28;20108;-61
2022/11/14 03:06:37;;;;;;;37.53;24.30;;;7.80;99.90;;;;;;5052958;28;20463;-61
2022/11/14 03:09:02;;;;;;;43.05;28.48;;;8.00;99.90;;;;;;5053176;28;20033;-61
2022/11/14 03:11:28;;;;;;;42.28;29.75;;;7.90;99.90;;;;;;5051934;28;20099;-61
2022/11/14 03:13:53;;;;;;;41.97;25.67;;;8.60;99.90;;;;;;5053865;28;20120;-61
2022/11/14 03:16:19;;;;;;;44.20;29.42;;;8.20;99.90;;;;;;5053394;28;20045;-61
2022/11/14 03:18:44;;;;;;;42.75;29.00;;;8.60;99.90;;;;;;5052463;28;20048;-61
2022/11/14 03:21:14;;;;;;;47.03;28.30;;;7.70;99.90;;;;;;5053617;28;20045;-61
2022/11/14 03:23:39;;;;;;;36.90;23.65;;;8.30;99.90;;;;;;5052933;28;20040;-61
2022/11/14 03:26:07;;;;;;;44.90;27.10;;;8.10;99.90;;;;;;5053801;28;20198;-61
2022/11/14 03:28:34;;;;;;;45.25;27.02;;;8.70;99.90;;;;;;5052417;28;20037;-61
2022/11/14 03:30:59;;;;;;;45.30;26.98;;;8.80;99.90;;;;;;5053119;28;20470;-61
2022/11/14 03:33:25;;;;;;;48.80;30.02;;;9.20;99.90;;;;;;5053245;28;20091;-61
2022/11/14 03:35:51;;;;;;;43.95;26.52;;;8.80;99.90;;;;;;5053358;28;20037;-61
2022/11/14 03:38:18;;;;;;;47.55;29.30;;;8.20;99.90;;;;;;5051158;28;20048;-61
2022/11/14 03:40:43;;;;;;;43.65;26.65;;;8.20;99.90;;;;;;5052450;28;20041;-61
2022/11/14 03:43:09;;;;;;;44.33;29.30;;;8.30;99.90;;;;;;5048252;28;20171;-61
2022/11/14 03:45:38;;;;;;;46.47;30.05;;;8.00;99.90;;;;;;5032735;28;20037;-61
2022/11/14 03:48:05;;;;;;;46.95;30.13;;;7.90;99.90;;;;;;5051892;28;20069;-61
2022/11/14 03:50:31;;;;;;;51.72;32.58;;;8.10;99.90;;;;;;5053216;28;20054;-61
2022/11/14 03:52:56;;;;;;;45.78;30.15;;;7.80;99.90;;;;;;5053411;28;20527;-61
2022/11/14 03:55:22;;;;;;;42.25;27.00;;;8.70;99.90;;;;;;5053087;28;20033;-61
2022/11/14 03:57:47;;;;;;;42.03;24.30;;;7.90;99.90;;;;;;5051801;28;20037;-61
2022/11/14 04:00:13;;;;;;;40.70;23.13;;;7.90;99.90;;;;;;5052675;28;20039;-62
2022/11/14 04:02:39;;;;;;;41.05;24.88;;;8.70;99.90;;;;;;5052040;28;20090;-61
2022/11/14 04:05:05;;;;;;;43.15;27.88;;;7.80;99.90;;;;;;5052905;28;20483;-62
2022/11/14 04:07:30;;;;;;;41.17;24.38;;;8.40;99.90;;;;;;5050298;28;20450;-61
2022/11/14 04:09:56;;;;;;;46.67;29.70;;;7.90;99.90;;;;;;5053037;28;20491;-61
2022/11/14 04:12:21;;;;;;;40.92;24.80;;;9.00;99.90;;;;;;5049471;28;20057;-61
2022/11/14 04:14:47;;;;;;;45.92;26.10;;;8.80;99.90;;;;;;5052952;28;20539;-61
2022/11/14 04:17:12;;;;;;;48.97;28.60;;;7.80;99.90;;;;;;5052419;28;20490;-61
2022/11/14 04:19:38;;;;;;;43.95;25.42;;;8.20;99.90;;;;;;5051945;28;20056;-61
2022/11/14 04:22:03;;;;;;;40.42;20.90;;;8.80;99.90;;;;;;5051400;28;20044;-61
2022/11/14 04:24:29;;;;;;;55.60;30.42;;;8.60;99.90;;;;;;5052529;28;20044;-61
2022/11/14 04:26:54;;;;;;;48.95;26.98;;;8.90;99.90;;;;;;5049921;28;20095;-61
2022/11/14 04:29:20;;;;;;;42.40;25.02;;;8.90;99.90;;;;;;5050842;28;20489;-61
2022/11/14 04:31:46;;;;;;;57.08;32.53;;;7.90;99.90;;;;;;5052050;28;20106;-61
2022/11/14 04:34:11;;;;;;;47.08;26.52;;;7.90;99.90;;;;;;5052434;28;20124;-61
2022/11/14 04:36:37;;;;;;;44.30;25.90;;;8.70;99.90;;;;;;5051700;28;20258;-61
2022/11/14 04:39:02;;;;;;;47.45;26.95;;;7.70;99.90;;;;;;5050379;28;20043;-61
2022/11/14 04:41:28;;;;;;;60.40;34.88;;;8.50;99.90;;;;;;5036677;28;20398;-61
2022/11/14 04:43:54;;;;;;;52.83;29.67;;;8.80;99.90;;;;;;5052443;28;20041;-61
2022/11/14 04:46:19;;;;;;;58.33;32.33;;;8.40;99.90;;;;;;5051754;28;20041;-61
2022/11/14 04:48:45;;;;;;;49.25;25.92;;;8.00;99.90;;;;;;5049940;28;20094;-61
2022/11/14 04:51:10;;;;;;;56.08;30.33;;;8.20;99.90;;;;;;5050948;28;20044;-61
2022/11/14 04:53:36;;;;;;;56.88;34.30;;;7.90;99.90;;;;;;5049356;28;20041;-61
2022/11/14 04:56:01;;;;;;;56.72;32.75;;;8.80;99.90;;;;;;5051320;28;20033;-61
2022/11/14 04:58:27;;;;;;;48.80;27.35;;;8.00;99.90;;;;;;5050842;28;20112;-62
2022/11/14 05:00:53;;;;;;;48.88;26.55;;;8.80;99.90;;;;;;5050319;28;20043;-61
2022/11/14 05:03:18;;;;;;;47.45;26.23;;;8.10;99.90;;;;;;5050134;28;20044;-62
2022/11/14 05:05:44;;;;;;;65.70;33.33;;;8.90;99.90;;;;;;5051411;28;20047;-61
2022/11/14 05:08:09;;;;;;;51.47;29.98;;;8.20;99.90;;;;;;5050344;28;20041;-61
2022/11/14 05:10:35;;;;;;;56.28;30.02;;;8.60;99.90;;;;;;5050907;28;20049;-61
2022/11/14 05:13:00;;;;;;;52.63;28.60;;;7.80;99.90;;;;;;5050778;28;20069;-61
2022/11/14 05:15:26;;;;;;;63.90;32.95;;;7.80;99.90;;;;;;5051621;28;20068;-61
2022/11/14 05:17:51;;;;;;;63.55;36.80;;;7.50;99.90;;;;;;5049887;28;20040;-62
2022/11/14 05:20:17;;;;;;;65.47;35.10;;;7.70;99.90;;;;;;5050520;28;20395;-61
2022/11/14 05:22:43;;;;;;;56.60;28.40;;;8.20;99.90;;;;;;5048897;28;20476;-61
2022/11/14 05:25:09;;;;;;;56.35;30.05;;;7.70;99.90;;;;;;5050227;28;20464;-61
2022/11/14 05:27:34;;;;;;;53.35;25.77;;;8.20;99.90;;;;;;5051353;28;20041;-61
2022/11/14 05:30:00;;;;;;;57.28;31.75;;;8.70;99.90;;;;;;5050158;28;20517;-61
2022/11/14 05:32:25;;;;;;;57.83;31.15;;;8.60;99.90;;;;;;5048468;28;20056;-61
2022/11/14 05:34:51;;;;;;;50.08;27.13;;;7.60;99.90;;;;;;5051498;28;20037;-61
2022/11/14 05:37:16;;;;;;;52.75;27.98;;;8.20;99.90;;;;;;5050963;28;20237;-61
2022/11/14 05:39:42;;;;;;;60.55;32.70;;;7.50;99.90;;;;;;5042546;28;20037;-61
2022/11/14 05:42:07;;;;;;;67.28;35.78;;;8.30;99.90;;;;;;5049169;28;20067;-61
2022/11/14 05:44:33;;;;;;;67.70;34.50;;;7.90;99.90;;;;;;5050527;28;20116;-61
2022/11/14 05:46:58;;;;;;;47.78;24.88;;;8.50;99.90;;;;;;5051100;28;20048;-61
2022/11/14 05:49:24;;;;;;;74.82;37.40;;;7.50;99.90;;;;;;5051029;28;20478;-61
2022/11/14 05:51:49;;;;;;;69.95;36.47;;;8.60;99.90;;;;;;5049891;28;20456;-61
2022/11/14 05:54:15;;;;;;;69.85;38.38;;;8.50;99.90;;;;;;5051277;28;20462;-61
2022/11/14 05:56:40;;;;;;;66.68;35.42;;;8.50;99.90;;;;;;5050920;28;20442;-61
2022/11/14 05:59:06;;;;;;;56.85;29.30;;;7.50;99.90;;;;;;5037168;28;20450;-61
2022/11/14 06:01:32;;;;;;;60.50;28.55;;;8.40;99.90;;;;;;5040450;28;20503;-61
2022/11/14 06:03:57;;;;;;;61.90;34.30;;;7.60;99.90;;;;;;5050619;28;20043;-61
2022/11/14 06:06:23;;;;;;;71.13;36.28;;;8.40;99.90;;;;;;5050945;28;20045;-61
2022/11/14 06:08:48;;;;;;;71.22;39.05;;;8.40;99.90;;;;;;5050819;28;20033;-61
2022/11/14 06:11:16;;;;;;;65.57;31.50;;;8.10;99.90;;;;;;5048982;28;20434;-62
2022/11/14 06:13:42;;;;;;;61.08;29.85;;;7.80;99.90;;;;;;5048546;28;20037;-61
2022/11/14 06:16:11;;;;;;;53.60;28.15;;;8.40;99.90;;;;;;5049526;28;20040;-61
2022/11/14 06:18:37;;;;;;;60.05;30.95;;;8.30;99.90;;;;;;5049707;28;20065;-62
2022/11/14 06:21:17;;;;;;;63.25;32.80;;;8.20;99.90;;;;;;5048364;28;20080;-61
2022/11/14 06:23:44;;;;;;;61.78;32.58;;;8.40;99.90;;;;;;5057242;28;20095;-61
2022/11/14 06:26:29;;;;;;;67.22;32.10;;;7.50;99.90;;;;;;5049001;28;20041;-61
2022/11/14 06:28:55;;;;;;;50.13;26.20;;;7.50;99.90;;;;;;5048314;28;20036;-61
2022/11/14 06:31:21;;;;;;;60.90;29.95;;;7.40;99.90;;;;;;5046919;28;20044;-60
2022/11/14 06:33:47;;;;;;;59.63;30.17;;;7.60;99.90;;;;;;5045555;28;20083;-61
2022/11/14 06:36:13;;;;;;;68.32;35.30;;;7.40;99.90;;;;;;5048891;28;20291;-61
2022/11/14 06:38:40;;;;;;;62.38;31.15;;;7.60;99.90;;;;;;5046881;28;20547;-62
2022/11/14 06:41:11;;;;;;;64.35;33.85;;;8.10;99.90;;;;;;5044179;28;20072;-61
2022/11/14 06:43:42;;;;;;;66.88;35.17;;;8.00;99.90;;;;;;5052587;28;20033;-61
2022/11/14 06:46:10;;;;;;;54.65;29.38;;;8.20;99.90;;;;;;5047967;28;20078;-61
2022/11/14 06:48:36;;;;;;;65.75;31.63;;;8.30;99.90;;;;;;5050268;28;20513;-61
2022/11/14 06:51:04;;;;;;;67.68;32.97;;;7.60;99.90;;;;;;5050210;28;20044;-61
2022/11/14 06:53:31;;;;;;;54.85;27.83;;;8.40;99.90;;;;;;5051722;28;20517;-61
2022/11/14 06:56:05;;;;;;;50.42;27.63;;;8.20;99.90;;;;;;5052281;28;20518;-61
2022/11/14 06:58:33;;;;;;;56.60;30.15;;;8.20;99.90;;;;;;5048346;28;20029;-61
2022/11/14 07:01:04;;;;;;;53.63;26.95;;;7.30;99.90;;;;;;5048782;28;20498;-61
2022/11/14 07:03:29;;;;;;;56.47;27.80;;;8.10;99.90;;;;;;5050735;28;20041;-61
2022/11/14 07:05:57;;;;;;;64.93;31.73;;;7.30;99.90;;;;;;5052170;28;20523;-61
2022/11/14 07:08:23;;;;;;;66.28;33.13;;;8.30;99.90;;;;;;5048457;28;20115;-61
2022/11/14 07:10:48;;;;;;;62.45;30.88;;;7.40;99.90;;;;;;5050216;28;20092;-60
2022/11/14 07:13:14;;;;;;;65.43;33.67;;;7.70;99.90;;;;;;5047536;28;20037;-60
2022/11/14 07:15:48;;;;;;;66.55;34.50;;;7.40;99.90;;;;;;5046318;28;20517;-60
2022/11/14 07:18:14;;;;;;;61.60;32.10;;;8.30;99.90;;;;;;5040915;28;20045;-60
2022/11/14 07:20:39;;;;;;;61.90;32.83;;;8.00;99.90;;;;;;5052107;28;20044;-60
2022/11/14 07:23:05;;;;;;;55.25;28.40;;;8.40;99.90;;;;;;5048858;28;20040;-60
2022/11/14 07:25:31;;;;;;;71.10;32.85;;;8.50;99.90;;;;;;5050038;28;20037;-60
2022/11/14 07:27:57;;;;;;;66.30;33.35;;;7.80;99.90;;;;;;5052771;28;20090;-60
2022/11/14 07:30:23;;;;;;;53.33;26.98;;;8.10;99.90;;;;;;5049282;28;20036;-60
2022/11/14 07:32:54;;;;;;;55.17;28.02;;;8.30;99.90;;;;;;5045197;28;20025;-60
2022/11/14 07:35:20;;;;;;;52.95;28.05;;;7.40;99.90;;;;;;5048427;28;20045;-60
2022/11/14 07:37:45;;;;;;;52.40;28.75;;;7.40;99.90;;;;;;5048403;28;20114;-60
2022/11/14 07:40:11;;;;;;;66.03;32.15;;;7.20;99.90;;;;;;5050443;28;20040;-60
2022/11/14 07:42:36;;;;;;;69.45;33.20;;;7.80;99.90;;;;;;5044614;28;20036;-60
2022/11/14 07:45:02;;;;;;;64.70;32.10;;;8.20;99.90;;;;;;5043627;28;20072;-60
2022/11/14 07:47:28;;;;;;;66.18;33.35;;;8.00;99.90;;;;;;5040847;28;20041;-60
2022/11/14 07:49:53;;;;;;;51.00;25.13;;;8.10;99.90;;;;;;5044286;28;20379;-62
2022/11/14 07:52:19;;;;;;;63.13;33.42;;;7.70;99.90;;;;;;5043002;28;20037;-61
2022/11/14 07:54:44;;;;;;;49.05;27.13;;;7.60;99.90;;;;;;5044952;28;20059;-61
2022/11/14 07:57:10;;;;;;;58.60;31.05;;;8.00;99.90;;;;;;5050309;28;20033;-61
2022/11/14 07:59:35;;;;;;;53.55;30.63;;;8.50;99.90;;;;;;5051545;28;20450;-61
2022/11/14 08:02:01;;;;;;;52.97;29.23;;;7.60;99.90;;;;;;5038689;28;20508;-62
2022/11/14 08:04:26;;;;;;;55.75;31.90;;;8.30;99.90;;;;;;5052923;28;20517;-61
2022/11/14 08:06:52;;;;;;;51.55;27.70;;;7.40;99.90;;;;;;5051472;28;20132;-61
2022/11/14 08:09:18;;;;;;;52.10;30.98;;;7.40;99.90;;;;;;5052912;28;20464;-61
2022/11/14 08:11:49;;;;;;;48.13;26.80;;;7.60;99.90;;;;;;5043645;28;20540;-61
2022/11/14 08:14:15;;;;;;;49.70;25.13;;;7.60;99.90;;;;;;5049777;28;20039;-60
2022/11/14 08:16:41;;;;;;;52.00;26.67;;;8.50;99.90;;;;;;5046937;28;20045;-61
2022/11/14 08:19:07;;;;;;;53.10;29.13;;;7.80;99.90;;;;;;5042786;28;20036;-61
2022/11/14 08:21:32;;;;;;;53.90;28.42;;;8.10;99.90;;;;;;5043031;28;20056;-61
2022/11/14 08:23:58;;;;;;;58.00;32.05;;;7.60;99.90;;;;;;5044674;28;20044;-60
2022/11/14 08:26:24;;;;;;;51.88;27.48;;;8.00;99.90;;;;;;5048970;28;20053;-61
2022/11/14 08:28:53;;;;;;;45.92;23.90;;;7.60;99.90;;;;;;5049478;28;20344;-60
2022/11/14 08:31:19;;;;;;;52.22;26.27;;;8.50;99.90;;;;;;5042670;28;20103;-61
2022/11/14 08:33:45;;;;;;;43.95;24.65;;;8.50;99.90;;;;;;5048425;28;20402;-60
2022/11/14 08:36:11;;;;;;;55.88;29.45;;;8.50;99.90;;;;;;5046047;28;20025;-61
2022/11/14 08:38:37;;;;;;;45.60;24.77;;;8.80;99.90;;;;;;5045605;28;20033;-61
2022/11/14 08:41:03;;;;;;;55.03;26.13;;;8.70;99.90;;;;;;5040237;28;20052;-61
2022/11/14 08:43:30;;;;;;;45.33;22.95;;;7.80;99.90;;;;;;5041823;28;20033;-60
2022/11/14 08:46:00;;;;;;;52.33;26.85;;;8.80;99.90;;;;;;5037758;28;20037;-60
2022/11/14 08:48:25;;;;;;;55.38;29.83;;;8.50;99.90;;;;;;5050935;28;20513;-62
2022/11/14 08:50:51;;;;;;;51.47;28.30;;;8.30;99.90;;;;;;5043939;28;20029;-61
2022/11/14 08:53:17;;;;;;;51.90;28.02;;;7.70;99.90;;;;;;5044740;28;20629;-61
2022/11/14 08:55:46;;;;;;;63.38;33.38;;;7.80;99.90;;;;;;5047990;28;20037;-62
2022/11/14 08:58:12;;;;;;;68.80;37.70;;;8.00;99.90;;;;;;5044723;28;20174;-61
2022/11/14 09:00:38;;;;;;;68.88;38.20;;;8.90;99.90;;;;;;5046782;28;20120;-61
2022/11/14 09:03:12;;;;;;;54.40;28.00;;;9.10;99.90;;;;;;5047500;28;20036;-61
2022/11/14 09:05:38;;;;;;;52.33;26.67;;;8.80;99.90;;;;;;5049098;28;20037;-61
2022/11/14 09:08:04;;;;;;;46.65;25.20;;;8.90;99.90;;;;;;5048101;28;20043;-60
2022/11/14 09:10:30;;;;;;;60.30;31.50;;;8.40;99.90;;;;;;5046403;28;20585;-61
2022/11/14 09:12:56;;;;;;;58.40;25.10;;;8.70;99.90;;;;;;5051539;28;20032;-61
2022/11/14 09:15:22;;;;;;;55.40;29.38;;;8.50;99.90;;;;;;5050168;28;20495;-60
2022/11/14 09:17:51;;;;;;;58.03;29.48;;;8.70;99.90;;;;;;5050224;28;20056;-61
2022/11/14 09:20:17;;;;;;;44.97;24.02;;;9.10;99.90;;;;;;5051742;28;20049;-62
2022/11/14 09:22:43;;;;;;;52.90;28.02;;;8.50;99.90;;;;;;5051672;28;20418;-61
2022/11/14 09:25:08;;;;;;;50.33;28.58;;;8.80;99.90;;;;;;5047974;28;20049;-61
2022/11/14 09:27:34;;;;;;;55.33;30.42;;;9.30;99.90;;;;;;5049966;28;20033;-61
2022/11/14 09:29:59;;;;;;;53.25;30.23;;;9.40;99.90;;;;;;5049734;28;20043;-60
2022/11/14 09:32:25;;;;;;;61.55;34.72;;;8.80;99.90;;;;;;5048522;28;20071;-61
2022/11/14 09:34:51;;;;;;;67.25;32.97;;;8.80;99.90;;;;;;5047343;28;20466;-61
2022/11/14 09:37:16;;;;;;;70.53;38.65;;;9.90;99.90;;;;;;5051445;28;20410;-61
2022/11/14 09:39:42;;;;;;;58.75;31.17;;;8.90;99.90;;;;;;5049551;28;20033;-61
2022/11/14 09:42:15;;;;;;;58.95;29.65;;;9.40;99.90;;;;;;5049347;28;20470;-61
2022/11/14 09:45:02;;;;;;;60.03;32.47;;;9.40;99.90;;;;;;5044239;28;20045;-61
2022/11/14 09:47:59;;;;;;;56.30;29.83;;;9.80;99.90;;;;;;5050739;28;20100;-61
2022/11/14 09:50:51;;;;;;;62.28;36.17;;;9.00;99.90;;;;;;5047978;28;20456;-61
2022/11/14 09:53:32;;;;;;;44.92;24.85;;;9.20;99.90;;;;;;5048891;28;20048;-61
2022/11/14 09:55:58;;;;;;;55.13;28.00;;;10.30;99.90;;;;;;5048437;28;20640;-61
2022/11/14 09:58:25;;;;;;;57.45;30.65;;;9.40;99.90;;;;;;5051540;28;20120;-61
2022/11/14 10:00:59;;;;;;;59.60;35.55;;;9.70;99.90;;;;;;5049320;28;20094;-61
2022/11/14 10:04:04;;;;;;;54.22;27.02;;;10.20;99.90;;;;;;5048183;28;20398;-62
2022/11/14 10:06:35;;;;;;;59.70;31.73;;;10.40;99.90;;;;;;5051041;28;20099;-62
2022/11/14 10:09:38;;;;;;;57.60;29.42;;;10.60;99.90;;;;;;5048599;28;20140;-63
2022/11/14 10:12:25;;;;;;;46.30;26.08;;;10.90;99.90;;;;;;5046349;28;20426;-61
2022/11/14 10:15:14;;;;;;;50.85;27.80;;;10.90;99.90;;;;;;5048988;28;20037;-61
2022/11/14 10:17:55;;;;;;;43.22;22.90;;;10.60;99.90;;;;;;5041017;28;20072;-62
2022/11/14 10:20:33;;;;;;;50.00;26.52;;;10.40;99.90;;;;;;5050189;28;20380;-61
2022/11/14 10:23:20;;;;;;;48.63;26.65;;;10.80;99.90;;;;;;5050779;28;20547;-61
2022/11/14 10:26:11;;;;;;;49.58;26.25;;;10.40;99.90;;;;;;5050509;28;20041;-62
2022/11/14 10:28:53;;;;;;;42.83;22.65;;;9.80;99.90;;;;;;5049969;28;20131;-61
2022/11/14 10:31:37;;;;;;;48.70;25.38;;;10.50;99.90;;;;;;5047049;28;20033;-64
2022/11/14 10:34:13;;;;;;;54.75;30.40;;;9.80;99.90;;;;;;5045407;28;20040;-62
2022/11/14 10:36:58;;;;;;;51.83;26.80;;;10.50;99.90;;;;;;5042503;28;20029;-61
2022/11/14 10:39:31;;;;;;;55.60;29.27;;;10.10;99.90;;;;;;5053197;28;20090;-61
2022/11/14 10:42:01;;;;;;;48.70;26.52;;;10.30;99.90;;;;;;5053547;28;20041;-61
2022/11/14 10:44:37;;;;;;;51.92;28.50;;;10.30;99.90;;;;;;5044223;28;20045;-61
2022/11/14 10:47:11;;;;;;;52.70;29.05;;;10.80;99.90;;;;;;5051716;28;20041;-61
2022/11/14 10:49:37;;;;;;;52.97;24.77;;;10.90;99.90;;;;;;5050917;28;20079;-61
2022/11/14 10:52:09;;;;;;;59.22;33.20;;;10.90;99.90;;;;;;5049635;28;20033;-62
2022/11/14 10:54:58;;;;;;;50.58;27.08;;;10.10;99.90;;;;;;5049010;28;20453;-61
2022/11/14 10:57:24;;;;;;;56.88;30.98;;;10.50;99.90;;;;;;5045458;28;20486;-62
2022/11/14 10:59:51;;;;;;;42.55;23.45;;;10.00;99.90;;;;;;5044756;28;20037;-62
2022/11/14 11:02:17;;;;;;;53.80;30.65;;;10.40;99.90;;;;;;5046226;28;20083;-61
2022/11/14 11:04:44;;;;;;;49.38;27.02;;;10.00;99.90;;;;;;5052020;28;20502;-61
2022/11/14 11:11:28;;;;;;;54.38;29.25;;;10.70;99.90;;;;;;5054085;28;20045;-61
2022/11/14 11:12:47;;;;;;;44.60;23.65;;;10.40;99.90;;;;;;5053301;28;20041;-61
2022/11/14 11:15:14;;;;;;;46.20;24.77;;;9.80;99.90;;;;;;5049639;28;20044;-61
2022/11/14 11:18:03;;;;;;;46.42;25.30;;;10.50;99.90;;;;;;5052826;28;20462;-61
2022/11/14 11:20:36;;;;;;;55.45;30.42;;;10.70;99.90;;;;;;5048578;28;20032;-62
2022/11/14 11:23:15;;;;;;;51.40;29.65;;;10.00;99.90;;;;;;5046939;28;20063;-61
2022/11/14 11:25:41;;;;;;;49.22;25.98;;;10.20;99.90;;;;;;5046866;28;20041;-61
2022/11/14 11:28:13;;;;;;;52.08;30.30;;;10.20;99.90;;;;;;5049447;28;20044;-62
2022/11/14 11:30:39;;;;;;;50.03;28.08;;;10.90;99.90;;;;;;5042107;28;20040;-61
2022/11/14 11:33:15;;;;;;;51.47;29.63;;;10.20;99.90;;;;;;5049518;28;20517;-61
2022/11/14 11:35:44;;;;;;;52.60;31.05;;;10.50;99.90;;;;;;5051094;28;20044;-61
2022/11/14 11:38:11;;;;;;;50.28;25.75;;;10.80;99.90;;;;;;5050152;28;20110;-62
2022/11/14 11:40:38;;;;;;;50.47;27.35;;;10.40;99.90;;;;;;5049581;28;20048;-61
2022/11/14 11:43:15;;;;;;;47.05;26.02;;;10.30;99.90;;;;;;5049797;28;20040;-61
2022/11/14 11:45:46;;;;;;;46.05;25.67;;;10.30;99.90;;;;;;5047717;28;20045;-61
2022/11/14 11:48:20;;;;;;;43.03;23.58;;;11.10;99.90;;;;;;5048923;28;20056;-61
2022/11/14 11:50:46;;;;;;;48.08;26.90;;;10.80;99.90;;;;;;5050443;28;20124;-63
2022/11/14 11:53:22;;;;;;;46.92;26.15;;;10.50;99.90;;;;;;5051225;28;20041;-61
2022/11/14 11:55:52;;;;;;;47.03;27.88;;;11.30;99.90;;;;;;5053279;28;20128;-61
2022/11/14 11:58:27;;;;;;;49.33;28.55;;;11.30;99.90;;;;;;5050212;28;20572;-61
2022/11/14 12:00:56;;;;;;;48.50;26.45;;;10.70;99.90;;;;;;5046164;28;20954;-62
2022/11/14 12:03:24;;;;;;;43.70;23.02;;;11.40;99.90;;;;;;5042271;28;20124;-62
2022/11/14 12:06:08;;;;;;;45.95;26.20;;;10.70;99.90;;;;;;5053170;28;20052;-62
2022/11/14 12:08:55;;;;;;;44.58;26.17;;;10.80;99.90;;;;;;5049314;28;20533;-62
2022/11/14 12:11:22;;;;;;;;;;;11.10;99.90;;;;;;5050735;28;20049;-62
2022/11/14 12:14:04;;;;;;;49.25;26.60;;;11.10;99.90;;;;;;5047051;28;19917;-62
2022/11/14 12:16:48;;;;;;;48.55;28.90;;;10.80;99.90;;;;;;5043028;28;20041;-62
2022/11/14 12:19:34;;;;;;;51.15;28.67;;;11.50;99.90;;;;;;5045439;28;20044;-62
2022/11/14 12:22:29;;;;;;;40.15;23.83;;;11.00;99.90;;;;;;5045049;28;20045;-61
2022/11/14 12:25:17;;;;;;;48.58;28.17;;;10.90;99.90;;;;;;5048178;28;20513;-61
2022/11/14 12:27:59;;;;;;;55.88;31.42;;;11.00;99.90;;;;;;5046316;28;20509;-61
2022/11/14 12:30:26;;;;;;;48.63;27.40;;;11.50;99.90;;;;;;5049791;28;20040;-61
2022/11/14 12:32:52;;;;;;;54.05;28.35;;;11.40;99.90;;;;;;5048249;28;20056;-63
2022/11/14 12:35:28;;;;;;;45.45;25.35;;;11.30;99.90;;;;;;5049241;28;20083;-62
2022/11/14 12:37:54;;;;;;;;;;;12.90;99.90;;;;;;5047818;28;20072;-62
2022/11/14 12:40:29;;;;;;;45.58;24.90;;;11.60;99.90;;;;;;5048512;28;22294;-61
2022/11/14 12:42:57;;;;;;;40.42;22.70;;;10.90;99.90;;;;;;5049328;28;20144;-61
2022/11/14 12:45:55;;;;;;;45.22;27.08;;;11.40;99.90;;;;;;5050026;28;20037;-61